Time;durP1;ratioP1;P1;durP2;ratioP2;P2;SDS_P1;SDS_P2;PMS_P1;PMS_P2;Temp;Humidity;BMP_temperature;BMP_pressure;BME280_temperature;BME280_humidity;BME280_pressure;Samples;Min_cycle;Max_cycle;Signal;HPM_P1;HPM_P2
2024/01/11 00:00:16;;;;;;;;;;;-4.40;91.10;;;;;;5114217;28;19966;-75
2024/01/11 00:02:41;;;;;;;;;;;-4.40;91.10;;;;;;5114614;28;19939;-75
2024/01/11 00:05:07;;;;;;;;;;;-4.30;91.20;;;;;;5132407;28;19914;-75
2024/01/11 00:07:32;;;;;;;;;;;-4.40;91.10;;;;;;5132582;28;19911;-75
2024/01/11 00:09:58;;;;;;;;;;;-4.50;91.20;;;;;;5114107;28;19912;-74
2024/01/11 00:12:23;;;;;;;;;;;-4.60;91.40;;;;;;5115175;27;19914;-75
2024/01/11 00:14:49;;;;;;;;;;;-4.60;91.60;;;;;;5117439;27;20443;-75
2024/01/11 00:17:15;;;;;;;;;;;-4.60;91.70;;;;;;5117979;27;19911;-75
2024/01/11 00:19:41;;;;;;;;;;;-4.60;91.80;;;;;;5136250;27;20364;-75
2024/01/11 00:22:06;;;;;;;;;;;-4.60;91.90;;;;;;5117840;27;19994;-76
2024/01/11 00:24:32;;;;;;;;;;;-4.60;91.90;;;;;;5136311;27;19907;-75
2024/01/11 00:26:58;;;;;;;;;;;-4.60;91.90;;;;;;5136486;27;19950;-75
2024/01/11 00:29:23;;;;;;;;;;;-4.70;92.00;;;;;;5117939;27;19954;-75
2024/01/11 00:31:48;;;;;;;;;;;-4.70;91.90;;;;;;5136220;27;19968;-76
2024/01/11 00:34:14;;;;;;;;;;;-4.60;91.60;;;;;;5117866;27;20355;-79
2024/01/11 00:36:39;;;;;;;;;;;-4.50;91.10;;;;;;5136309;27;19912;-75
2024/01/11 00:39:05;;;;;;;;;;;-4.60;91.30;;;;;;5136248;27;19931;-75
2024/01/11 00:41:30;;;;;;;;;;;-4.60;91.00;;;;;;5135766;27;20384;-75
2024/01/11 00:43:56;;;;;;;;;;;-4.70;91.50;;;;;;5117696;27;19907;-75
2024/01/11 00:46:21;;;;;;;;;;;-4.80;92.10;;;;;;5117479;27;19927;-75
2024/01/11 00:48:47;;;;;;;;;;;-4.80;91.80;;;;;;5136324;27;20003;-75
2024/01/11 00:51:13;;;;;;;;;;;-4.80;92.20;;;;;;5136235;27;19911;-75
2024/01/11 00:53:38;;;;;;;;;;;-4.70;92.10;;;;;;5136117;27;19907;-75
2024/01/11 00:56:04;;;;;;;;;;;-4.60;91.80;;;;;;5135788;27;19915;-75
2024/01/11 00:58:29;;;;;;;;;;;-4.60;91.20;;;;;;5117368;27;19914;-75
2024/01/11 01:00:55;;;;;;;;;;;-4.60;91.30;;;;;;5110800;27;19935;-75
2024/01/11 01:03:21;;;;;;;;;;;-4.80;91.70;;;;;;5117308;27;19908;-77
2024/01/11 01:05:46;;;;;;;;;;;-4.70;91.70;;;;;;5117394;27;19915;-75
2024/01/11 01:08:12;;;;;;;;;;;-4.80;91.70;;;;;;5135855;27;19907;-75
2024/01/11 01:10:38;;;;;;;;;;;-4.80;91.90;;;;;;5116912;27;19943;-76
2024/01/11 01:13:03;;;;;;;;;;;-4.70;92.00;;;;;;5116682;27;20272;-75
2024/01/11 01:15:29;;;;;;;;;;;-4.80;91.80;;;;;;5135293;27;19918;-75
2024/01/11 01:17:54;;;;;;;;;;;-4.70;91.80;;;;;;5135428;27;20038;-75
2024/01/11 01:20:20;;;;;;;;;;;-4.80;91.80;;;;;;5135402;27;19920;-75
2024/01/11 01:22:45;;;;;;;;;;;-4.90;92.00;;;;;;5135287;27;20501;-75
2024/01/11 01:25:11;;;;;;;;;;;-4.80;92.20;;;;;;5133997;27;19911;-75
2024/01/11 01:27:36;;;;;;;;;;;-4.80;92.00;;;;;;5116533;27;19908;-75
2024/01/11 01:30:02;;;;;;;;;;;-4.80;91.90;;;;;;5117070;27;20003;-75
2024/01/11 01:32:28;;;;;;;;;;;-4.80;92.00;;;;;;5134639;27;19908;-75
2024/01/11 01:34:53;;;;;;;;;;;-4.80;92.30;;;;;;5116951;27;19919;-76
2024/01/11 01:37:19;;;;;;;;;;;-4.90;92.40;;;;;;5116776;27;19933;-76
2024/01/11 01:39:44;;;;;;;;;;;-5.00;92.60;;;;;;5135162;27;19966;-76
2024/01/11 01:42:10;;;;;;;;;;;-5.00;92.90;;;;;;5135471;27;20010;-76
2024/01/11 01:44:35;;;;;;;;;;;-4.90;92.80;;;;;;5116884;27;19915;-76
2024/01/11 01:47:02;;;;;;;;;;;-4.80;92.70;;;;;;5117748;27;20357;-76
2024/01/11 01:49:28;;;;;;;;;;;-4.70;92.60;;;;;;5114650;28;20372;-76
2024/01/11 01:51:54;;;;;;;;;;;-4.80;92.50;;;;;;5096356;28;20011;-76
2024/01/11 01:54:20;;;;;;;;;;;-4.90;92.90;;;;;;5096722;28;19947;-76
2024/01/11 01:56:46;;;;;;;;;;;-5.00;93.30;;;;;;5114981;28;19914;-75
2024/01/11 01:59:12;;;;;;;;;;;-5.10;94.00;;;;;;5114202;28;19912;-76
2024/01/11 02:01:38;;;;;;;;;;;-5.00;93.80;;;;;;5101670;27;19919;-75
2024/01/11 02:04:03;;;;;;;;;;;-5.00;93.60;;;;;;5129583;27;19934;-73
2024/01/11 02:06:31;;;;;;;;;;;-4.90;93.30;;;;;;5130654;27;20288;-75
2024/01/11 02:08:58;;;;;;;;;;;-4.90;93.30;;;;;;5115905;27;19911;-76
2024/01/11 02:11:24;;;;;;;;;;;-4.80;92.80;;;;;;5115058;27;20000;-75
2024/01/11 02:13:50;;;;;;;;;;;-4.80;92.70;;;;;;5121149;27;19954;-75
2024/01/11 02:16:15;;;;;;;;;;;-4.90;93.20;;;;;;5134081;27;19911;-74
2024/01/11 02:18:41;;;;;;;;;;;-5.00;93.20;;;;;;5130642;27;19919;-74
2024/01/11 02:21:08;;;;;;;;;;;-5.10;93.70;;;;;;5133994;27;19915;-76
2024/01/11 02:23:36;;;;;;;;;;;-5.10;94.00;;;;;;5134108;27;19990;-74
2024/01/11 02:26:01;;;;;;;;;;;-5.20;94.20;;;;;;5112500;27;20029;-75
2024/01/11 02:28:27;;;;;;;;;;;-5.10;94.00;;;;;;5115659;27;19984;-75
2024/01/11 02:30:52;;;;;;;;;;;-5.10;93.90;;;;;;5111219;28;19916;-75
2024/01/11 02:33:18;;;;;;;;;;;-5.10;93.90;;;;;;5100078;27;20017;-75
2024/01/11 02:35:44;;;;;;;;;;;-5.10;94.30;;;;;;5115045;27;20372;-75
2024/01/11 02:38:09;;;;;;;;;;;-5.20;94.40;;;;;;5133792;27;19911;-74
2024/01/11 02:40:37;;;;;;;;;;;-5.20;94.40;;;;;;5133486;27;19927;-75
2024/01/11 02:43:10;;;;;;;;;;;-5.30;95.10;;;;;;5114978;27;19914;-76
2024/01/11 02:45:35;;;;;;;;;;;-5.20;95.00;;;;;;5115305;27;19912;-75
2024/01/11 02:48:01;;;;;;;;;;;-5.10;95.00;;;;;;5133609;27;19915;-75
2024/01/11 02:50:26;;;;;;;;;;;-5.00;94.50;;;;;;5130665;27;19914;-75
2024/01/11 02:52:52;;;;;;;;;;;-5.10;94.60;;;;;;5130412;27;19941;-76
2024/01/11 02:55:17;;;;;;;;;;;-5.10;94.90;;;;;;5110431;27;19915;-75
2024/01/11 02:57:43;;;;;;;;;;;-5.10;95.20;;;;;;5109882;27;20285;-75
2024/01/11 03:00:08;;;;;;;;;;;-5.20;95.60;;;;;;5115181;27;19923;-76
2024/01/11 03:02:34;;;;;;;;;;;-5.20;96.70;;;;;;5115216;27;19919;-74
2024/01/11 03:04:59;;;;;;;;;;;-5.20;96.40;;;;;;5113571;28;19915;-75
2024/01/11 03:07:25;;;;;;;;;;;-5.30;96.20;;;;;;5113633;28;19923;-75
2024/01/11 03:09:51;;;;;;;;;;;-5.20;96.10;;;;;;5095369;28;20372;-76
2024/01/11 03:12:16;;;;;;;;;;;-5.10;95.30;;;;;;5110941;27;20371;-75
2024/01/11 03:14:41;;;;;;;;;;;-5.10;94.90;;;;;;5110825;28;20269;-75
2024/01/11 03:17:07;;;;;;;;;;;-5.10;94.80;;;;;;5123287;27;20386;-75
2024/01/11 03:19:32;;;;;;;;;;;-5.00;94.60;;;;;;5128692;27;19914;-76
2024/01/11 03:21:58;;;;;;;;;;;-5.00;94.80;;;;;;5114389;27;19959;-74
2024/01/11 03:24:23;;;;;;;;;;;-4.90;94.90;;;;;;5133739;27;19930;-75
2024/01/11 03:26:49;;;;;;;;;;;-4.90;94.80;;;;;;5113952;27;19911;-75
2024/01/11 03:29:14;;;;;;;;;;;-4.90;95.20;;;;;;5114344;27;19911;-75
2024/01/11 03:31:42;;;;;;;;;;;-4.90;95.50;;;;;;5132843;27;19969;-75
2024/01/11 03:34:08;;;;;;;;;;;-5.00;95.90;;;;;;5114582;27;19919;-75
2024/01/11 03:36:33;;;;;;;;;;;-5.10;96.10;;;;;;5132941;27;19907;-75
2024/01/11 03:38:59;;;;;;;;;;;-5.10;96.40;;;;;;5114135;27;19931;-75
2024/01/11 03:41:24;;;;;;;;;;;-5.10;96.40;;;;;;5114471;27;20032;-75
2024/01/11 03:43:50;;;;;;;;;;;-5.00;96.10;;;;;;5132654;27;19911;-75
2024/01/11 03:46:15;;;;;;;;;;;-5.20;96.20;;;;;;5132937;27;19908;-76
2024/01/11 03:48:41;;;;;;;;;;;-5.20;96.50;;;;;;5132564;27;19911;-75
2024/01/11 03:51:06;;;;;;;;;;;-5.10;96.50;;;;;;5114303;28;20276;-75
2024/01/11 03:53:36;;;;;;;;;;;-5.00;96.20;;;;;;5132821;27;20329;-75
2024/01/11 03:56:02;;;;;;;;;;;-5.00;96.10;;;;;;5114339;28;19968;-75
2024/01/11 03:58:27;;;;;;;;;;;-5.00;95.90;;;;;;5132691;28;19915;-75
2024/01/11 04:00:53;;;;;;;;;;;-5.10;96.10;;;;;;5133030;28;19962;-74
2024/01/11 04:03:18;;;;;;;;;;;-5.10;96.40;;;;;;5114566;28;20319;-75
2024/01/11 04:05:44;;;;;;;;;;;-5.10;96.80;;;;;;5114576;28;19911;-76
2024/01/11 04:08:10;;;;;;;;;;;-5.10;96.90;;;;;;5133068;28;20295;-76
2024/01/11 04:10:35;;;;;;;;;;;-5.00;96.80;;;;;;5132163;28;19966;-75
2024/01/11 04:13:01;;;;;;;;;;;-5.00;96.40;;;;;;5113769;28;19911;-76
2024/01/11 04:15:26;;;;;;;;;;;-5.00;96.10;;;;;;5114002;28;19912;-74
2024/01/11 04:17:52;;;;;;;;;;;-5.10;96.40;;;;;;5132475;28;19943;-76
2024/01/11 04:20:17;;;;;;;;;;;-5.20;96.60;;;;;;5113866;28;19954;-75
2024/01/11 04:22:43;;;;;;;;;;;-5.20;97.30;;;;;;5132496;28;19907;-75
2024/01/11 04:25:08;;;;;;;;;;;-5.20;97.20;;;;;;5132156;28;19972;-76
2024/01/11 04:27:34;;;;;;;;;;;-5.30;97.70;;;;;;5113815;28;19907;-75
2024/01/11 04:29:59;;;;;;;;;;;-5.30;97.80;;;;;;5113735;28;19915;-76
2024/01/11 04:32:25;;;;;;;;;;;-5.30;97.80;;;;;;5113703;28;20683;-75
2024/01/11 04:34:50;;;;;;;;;;;-5.30;97.50;;;;;;5132290;28;19911;-76
2024/01/11 04:37:16;;;;;;;;;;;-5.30;97.80;;;;;;5113775;28;20384;-75
2024/01/11 04:39:42;;;;;;;;;;;-5.30;97.90;;;;;;5113428;28;19930;-75
2024/01/11 04:42:07;;;;;;;;;;;-5.40;98.10;;;;;;5131858;28;19912;-75
2024/01/11 04:44:33;;;;;;;;;;;-5.30;98.20;;;;;;5132425;28;20379;-76
2024/01/11 04:46:58;;;;;;;;;;;-5.40;98.10;;;;;;5132189;28;19907;-75
2024/01/11 04:49:24;;;;;;;;;;;-5.40;98.00;;;;;;5113630;28;19911;-75
2024/01/11 04:51:49;;;;;;;;;;;-5.40;97.90;;;;;;5132415;28;19911;-76
2024/01/11 04:54:15;;;;;;;;;;;-5.20;97.70;;;;;;5113819;28;20398;-75
2024/01/11 04:56:40;;;;;;;;;;;-5.20;97.60;;;;;;5113395;28;19908;-75
2024/01/11 04:59:05;;;;;;;;;;;-5.20;97.40;;;;;;5114227;27;19908;-75
2024/01/11 05:01:31;;;;;;;;;;;-5.10;97.30;;;;;;5135886;27;19976;-74
2024/01/11 05:03:57;;;;;;;;;;;-5.10;97.20;;;;;;5135971;27;20371;-75
2024/01/11 05:06:22;;;;;;;;;;;-5.10;97.30;;;;;;5135712;27;19915;-76
2024/01/11 05:08:49;;;;;;;;;;;-5.10;97.50;;;;;;5135451;27;20448;-75
2024/01/11 05:11:18;;;;;;;;;;;-5.00;97.60;;;;;;5117172;27;19914;-75
2024/01/11 05:13:47;;;;;;;;;;;-5.10;97.60;;;;;;5135675;27;19907;-75
2024/01/11 05:16:28;;;;;;;;;;;-5.20;97.60;;;;;;5117080;27;19918;-75
2024/01/11 05:18:55;;;;;;;;;;;-5.30;97.60;;;;;;5135589;27;20325;-75
2024/01/11 05:21:21;;;;;;;;;;;-5.30;98.20;;;;;;5135483;27;19915;-75
2024/01/11 05:23:46;;;;;;;;;;;-5.40;99.20;;;;;;5135435;27;19912;-75
2024/01/11 05:26:13;;;;;;;;;;;-5.40;99.50;;;;;;5116781;27;20279;-75
2024/01/11 05:28:38;;;;;;;;;;;-5.30;99.00;;;;;;5116842;27;19907;-75
2024/01/11 05:31:05;;;;;;;;;;;-5.20;98.80;;;;;;5135364;27;19918;-75
2024/01/11 05:33:31;;;;;;;;;;;-5.30;98.60;;;;;;5135168;27;19918;-76
2024/01/11 05:35:57;;;;;;;;;;;-5.40;98.70;;;;;;5116752;27;19907;-75
2024/01/11 05:38:22;;;;;;;;;;;-5.40;98.80;;;;;;5116808;27;19922;-76
2024/01/11 05:40:48;;;;;;;;;;;-5.50;98.90;;;;;;5116783;27;19922;-76
2024/01/11 05:43:13;;;;;;;;;;;-5.50;99.30;;;;;;5116794;27;19907;-76
2024/01/11 05:45:39;;;;;;;;;;;-5.60;99.50;;;;;;5116590;27;19940;-76
2024/01/11 05:48:05;;;;;;;;;;;-5.50;99.70;;;;;;5116504;27;20368;-75
2024/01/11 05:50:31;;;;;;;;;;;-5.50;99.80;;;;;;5116871;27;19908;-75
2024/01/11 05:52:56;;;;;;;;;;;-5.50;99.90;;;;;;5116515;27;19952;-75
2024/01/11 05:55:22;;;;;;;;;;;-5.50;99.90;;;;;;5135005;27;19911;-75
2024/01/11 05:57:48;;;;;;;;;;;-5.50;99.20;;;;;;5135084;27;20006;-75
2024/01/11 06:00:14;;;;;;;;;;;-5.50;99.60;;;;;;5116385;27;20446;-75
2024/01/11 06:02:40;;;;;;;;;;;-5.50;99.80;;;;;;5135110;27;19908;-75
2024/01/11 06:05:09;;;;;;;;;;;-5.50;99.80;;;;;;5116221;27;19911;-75
2024/01/11 06:07:35;;;;;;;;;;;-5.40;99.90;;;;;;5134546;27;19918;-76
2024/01/11 06:10:02;;;;;;;;;;;-5.50;99.90;;;;;;5134611;27;19907;-75
2024/01/11 06:12:28;;;;;;;;;;;-5.40;99.90;;;;;;5116154;27;19998;-75
2024/01/11 06:17:38;;;;;;;;;;;-5.40;99.90;;;;;;5134549;27;19964;-74
2024/01/11 06:20:04;;;;;;;;;;;-5.30;99.90;;;;;;5115989;27;19915;-75
2024/01/11 06:22:30;;;;;;;;;;;-5.30;99.90;;;;;;5115946;27;20321;-76
2024/01/11 06:24:55;;;;;;;;;;;-5.30;99.90;;;;;;5115548;27;19915;-75
2024/01/11 06:27:21;;;;;;;;;;;-5.40;99.90;;;;;;5115581;27;19911;-75
2024/01/11 06:29:46;;;;;;;;;;;-5.40;99.90;;;;;;5115611;27;19966;-75
2024/01/11 06:32:12;;;;;;;;;;;-5.50;99.90;;;;;;5115526;27;20378;-75
2024/01/11 06:34:37;;;;;;;;;;;-5.40;99.90;;;;;;5134039;27;19960;-76
2024/01/11 06:37:03;;;;;;;;;;;-5.50;99.90;;;;;;5115457;27;19911;-76
2024/01/11 06:39:29;;;;;;;;;;;-5.50;99.90;;;;;;5133816;27;19919;-75
2024/01/11 06:41:55;;;;;;;;;;;-5.40;99.90;;;;;;5133871;27;19915;-75
2024/01/11 06:44:21;;;;;;;;;;;-5.50;99.90;;;;;;5133993;27;20382;-75
2024/01/11 06:46:46;;;;;;;;;;;-5.50;99.90;;;;;;5115067;27;19915;-75
2024/01/11 06:49:12;;;;;;;;;;;-5.50;99.90;;;;;;5133701;27;19911;-76
2024/01/11 06:51:38;;;;;;;;;;;-5.60;99.90;;;;;;5133819;27;20287;-76
2024/01/11 06:54:04;;;;;;;;;;;-5.60;99.90;;;;;;5115094;27;19907;-75
2024/01/11 06:56:30;;;;;;;;;;;-5.60;99.90;;;;;;5115135;27;19912;-75
2024/01/11 06:58:56;;;;;;;;;;;-5.60;99.90;;;;;;5115046;27;20292;-75
2024/01/11 07:01:21;;;;;;;;;;;-5.60;99.90;;;;;;5133325;27;20391;-75
2024/01/11 07:03:49;;;;;;;;;;;-5.50;99.90;;;;;;5114899;27;19992;-75
2024/01/11 07:06:15;;;;;;;;;;;-5.50;99.90;;;;;;5115007;27;19939;-75
2024/01/11 07:08:40;;;;;;;;;;;-5.50;99.90;;;;;;5114723;27;19907;-75
2024/01/11 07:11:07;;;;;;;;;;;-5.50;99.90;;;;;;5114770;27;20332;-75
2024/01/11 07:13:32;;;;;;;;;;;-5.50;99.90;;;;;;5114746;27;19915;-75
2024/01/11 07:15:58;;;;;;;;;;;-5.40;99.90;;;;;;5132929;27;19907;-76
2024/01/11 07:18:24;;;;;;;;;;;-5.30;99.90;;;;;;5114913;27;19998;-75
2024/01/11 07:20:50;;;;;;;;;;;-5.30;99.90;;;;;;5114466;27;19934;-76
2024/01/11 07:23:16;;;;;;;;;;;-5.00;99.90;;;;;;5113891;27;19915;-76
2024/01/11 07:25:42;;;;;;;;;;;-4.40;99.90;;;;;;5133098;27;19994;-75
2024/01/11 07:28:08;;;;;;;;;;;-3.80;99.90;;;;;;5132962;27;19907;-75
2024/01/11 07:30:34;;;;;;;;;;;-3.40;98.60;;;;;;5133073;27;19919;-75
2024/01/11 07:32:59;;;;;;;;;;;-3.10;97.00;;;;;;5132685;27;20410;-75
2024/01/11 07:35:25;;;;;;;;;;;-2.70;96.70;;;;;;5114439;27;19912;-75
2024/01/11 07:37:50;;;;;;;;;;;-2.30;94.50;;;;;;5133070;27;19908;-75
2024/01/11 07:40:16;;;;;;;;;;;-2.00;93.40;;;;;;5132595;27;19934;-75
2024/01/11 07:42:45;;;;;;;;;;;-2.00;93.10;;;;;;5114067;27;20412;-76
2024/01/11 07:45:11;;;;;;;;;;;-2.00;93.40;;;;;;5133337;27;19911;-75
2024/01/11 07:47:39;;;;;;;;;;;-2.00;93.40;;;;;;5133238;27;19980;-75
2024/01/11 07:50:06;;;;;;;;;;;-1.80;93.30;;;;;;5114532;27;20028;-75
2024/01/11 07:52:32;;;;;;;;;;;-1.70;92.60;;;;;;5114610;27;20475;-75
2024/01/11 07:55:00;;;;;;;;;;;-1.70;92.70;;;;;;5114174;27;19908;-75
2024/01/11 07:57:25;;;;;;;;;;;-1.70;93.10;;;;;;5114696;28;19915;-76
2024/01/11 07:59:51;;;;;;;;;;;-1.60;93.30;;;;;;5114205;28;20276;-76
2024/01/11 08:02:16;;;;;;;;;;;-1.60;93.10;;;;;;5114273;28;19916;-75
2024/01/11 08:04:42;;;;;;;;;;;-1.40;93.00;;;;;;5133102;28;19915;-76
2024/01/11 08:07:07;;;;;;;;;;;-1.00;92.30;;;;;;5133448;28;19918;-75
2024/01/11 08:09:33;;;;;;;;;;;-0.70;91.50;;;;;;5115291;28;19907;-75
2024/01/11 08:11:58;;;;;;;;;;;-0.30;90.50;;;;;;5115418;28;20051;-77
2024/01/11 08:14:24;;;;;;;;;;;-0.10;87.30;;;;;;5115957;28;19915;-75
2024/01/11 08:16:50;;;;;;;;;;;0.30;87.70;;;;;;5115872;28;19918;-75
2024/01/11 08:19:16;;;;;;;;;;;0.60;85.40;;;;;;5134447;28;19912;-75
2024/01/11 08:21:42;;;;;;;;;;;0.90;83.60;;;;;;5135003;28;19916;-76
2024/01/11 08:24:08;;;;;;;;;;;1.20;83.30;;;;;;5116274;28;19911;-76
2024/01/11 08:26:33;;;;;;;;;;;1.60;79.50;;;;;;5133128;28;20368;-76
2024/01/11 08:28:59;;;;;;;;;;;1.90;77.90;;;;;;5132988;28;19957;-75
2024/01/11 08:31:24;;;;;;;;;;;2.10;75.20;;;;;;5115119;28;19918;-75
2024/01/11 08:33:50;;;;;;;;;;;1.90;74.40;;;;;;5117601;27;19912;-76
2024/01/11 08:36:16;;;;;;;;;;;1.60;75.90;;;;;;5137377;27;19946;-76
2024/01/11 08:38:41;;;;;;;;;;;1.30;77.60;;;;;;5137445;27;19919;-76
2024/01/11 08:41:07;;;;;;;;;;;1.00;78.70;;;;;;5118880;27;19923;-76
2024/01/11 08:43:32;;;;;;;;;;;0.70;80.50;;;;;;5119098;27;20379;-76
2024/01/11 08:45:58;;;;;;;;;;;0.30;81.20;;;;;;5118973;27;19914;-75
2024/01/11 08:48:24;;;;;;;;;;;0.20;82.10;;;;;;5137859;27;19911;-75
2024/01/11 08:50:49;;;;;;;;;;;0.10;82.60;;;;;;5118667;27;19914;-76
2024/01/11 08:53:15;;;;;;;;;;;0.10;83.20;;;;;;5118668;27;19911;-76
2024/01/11 08:55:41;;;;;;;;;;;0.00;84.10;;;;;;5137074;27;19908;-75
2024/01/11 08:58:07;;;;;;;;;;;0.00;83.90;;;;;;5118975;27;19964;-75
2024/01/11 09:00:32;;;;;;;;;;;-0.10;84.50;;;;;;5118188;27;19920;-76
2024/01/11 09:02:58;;;;;;;;;;;-0.20;85.60;;;;;;5117999;27;19908;-76
2024/01/11 09:05:23;;;;;;;;;;;0.00;85.60;;;;;;5118117;27;19964;-76
2024/01/11 09:07:49;;;;;;;;;;;-0.20;86.60;;;;;;5118656;27;19956;-76
2024/01/11 09:10:14;;;;;;;;;;;-0.20;87.30;;;;;;5137065;27;19919;-75
2024/01/11 09:12:40;;;;;;;;;;;-0.20;88.20;;;;;;5137179;27;19907;-75
2024/01/11 09:15:05;;;;;;;;;;;-0.10;88.10;;;;;;5136958;27;19972;-76
2024/01/11 09:17:32;;;;;;;;;;;-0.20;88.40;;;;;;5137058;27;19959;-76
2024/01/11 09:19:57;;;;;;;;;;;-0.10;89.20;;;;;;5118571;27;19911;-76
2024/01/11 09:22:23;;;;;;;;;;;-0.10;89.20;;;;;;5118822;27;19907;-77
2024/01/11 09:24:48;;;;;;;;;;;-0.20;90.10;;;;;;5118230;27;19915;-75
2024/01/11 09:27:14;;;;;;;;;;;-0.10;90.40;;;;;;5117644;27;19915;-75
2024/01/11 09:29:46;;;;;;;;;;;-0.10;90.50;;;;;;5117672;27;20275;-75
2024/01/11 09:32:14;;;;;;;;;;;-0.10;90.70;;;;;;5117693;27;19929;-75
2024/01/11 09:34:40;;;;;;;;;;;0.00;91.10;;;;;;5117399;27;19914;-76
2024/01/11 09:37:05;;;;;;;;;;;0.20;91.20;;;;;;5117628;27;19912;-76
2024/01/11 09:39:31;;;;;;;;;;;0.10;91.50;;;;;;5117238;27;19919;-76
2024/01/11 09:42:22;;;;;;;;;;;0.30;91.30;;;;;;5135418;27;19922;-75
2024/01/11 09:44:48;;;;;;;;;;;0.30;91.30;;;;;;5130294;27;19907;-76
2024/01/11 09:47:16;;;;;;;;;;;0.30;91.80;;;;;;5135986;27;19963;-75
2024/01/11 09:49:42;;;;;;;;;;;0.20;92.50;;;;;;5136202;27;19953;-75
2024/01/11 09:52:10;;;;;;;;;;;0.20;93.10;;;;;;5117505;27;20440;-75
2024/01/11 09:54:36;;;;;;;;;;;0.20;93.70;;;;;;5117321;27;20017;-76
2024/01/11 09:57:03;;;;;;;;;;;0.30;94.40;;;;;;5117683;27;19999;-75
2024/01/11 09:59:28;;;;;;;;;;;0.50;94.40;;;;;;5117176;27;19911;-75
2024/01/11 10:01:54;;;;;;;;;;;0.60;94.10;;;;;;5136129;27;19968;-74
2024/01/11 10:04:19;;;;;;;;;;;0.70;93.60;;;;;;5117020;27;19907;-75
2024/01/11 10:06:46;;;;;;;;;;;0.80;93.30;;;;;;5135533;27;19934;-75
2024/01/11 10:09:12;;;;;;;;;;;0.90;93.10;;;;;;5135367;27;19976;-75
2024/01/11 10:11:38;;;;;;;;;;;1.00;92.50;;;;;;5117525;27;19914;-76
2024/01/11 10:14:05;;;;;;;;;;;1.00;92.90;;;;;;5116629;27;19911;-75
2024/01/11 10:16:30;;;;;;;;;;;1.10;92.60;;;;;;5135599;27;19915;-75
2024/01/11 10:18:57;;;;;;;;;;;1.10;92.90;;;;;;5135482;27;19937;-75
2024/01/11 10:21:23;;;;;;;;;;;1.10;93.00;;;;;;5135183;27;19919;-76
2024/01/11 10:23:51;;;;;;;;;;;1.10;93.10;;;;;;5117199;27;19930;-76
2024/01/11 10:26:17;;;;;;;;;;;1.10;93.50;;;;;;5135949;27;19915;-76
2024/01/11 10:28:46;;;;;;;;;;;1.10;93.00;;;;;;5118268;27;20455;-77
2024/01/11 10:31:11;;;;;;;;;;;1.10;93.20;;;;;;5137245;27;19911;-75
2024/01/11 10:33:37;;;;;;;;;;;1.10;93.10;;;;;;5115682;27;19911;-76
2024/01/11 10:36:03;;;;;;;;;;;1.00;93.40;;;;;;5133999;27;20371;-76
2024/01/11 10:38:30;;;;;;;;;;;1.20;93.20;;;;;;5112555;28;19920;-75
2024/01/11 10:40:59;;;;;;;;;;;1.20;92.90;;;;;;5112490;28;19924;-75
2024/01/11 10:43:26;;;;;;;;;;;1.20;92.50;;;;;;5114167;28;19908;-76
2024/01/11 10:45:53;;;;;;;;;;;1.10;92.80;;;;;;5113938;28;19915;-76
2024/01/11 10:48:20;;;;;;;;;;;1.30;92.70;;;;;;5114042;28;20363;-76
2024/01/11 10:50:49;;;;;;;;;;;1.30;93.00;;;;;;5112074;28;19912;-75
2024/01/11 10:53:17;;;;;;;;;;;1.30;93.40;;;;;;5112317;28;19946;-76
2024/01/11 10:55:43;;;;;;;;;;;1.30;93.20;;;;;;5114235;28;19999;-76
2024/01/11 10:58:10;;;;;;;;;;;1.30;92.70;;;;;;5112878;28;19943;-76
2024/01/11 11:00:36;;;;;;;;;;;1.20;93.10;;;;;;5112594;28;19919;-75
2024/01/11 11:03:02;;;;;;;;;;;1.30;93.60;;;;;;5112641;28;19914;-76
2024/01/11 11:05:29;;;;;;;;;;;1.30;93.20;;;;;;5112109;28;20395;-76
2024/01/11 11:07:55;;;;;;;;;;;1.30;93.10;;;;;;5112392;28;19951;-76
2024/01/11 11:10:21;;;;;;;;;;;1.40;92.50;;;;;;5112211;28;19972;-76
2024/01/11 11:12:48;;;;;;;;;;;1.50;92.20;;;;;;5112306;28;19994;-76
2024/01/11 11:15:14;;;;;;;;;;;1.50;92.30;;;;;;5113844;28;19999;-75
2024/01/11 11:17:43;;;;;;;;;;;1.50;92.20;;;;;;5112265;28;19939;-76
2024/01/11 11:20:11;;;;;;;;;;;1.60;92.40;;;;;;5113797;28;20002;-75
2024/01/11 11:22:37;;;;;;;;;;;1.60;92.50;;;;;;5113703;28;19975;-76
2024/01/11 11:25:05;;;;;;;;;;;1.60;91.80;;;;;;5112003;28;19955;-76
2024/01/11 11:27:30;;;;;;;;;;;1.70;91.90;;;;;;5113035;28;20364;-75
2024/01/11 11:29:56;;;;;;;;;;;1.70;92.10;;;;;;5111557;28;20007;-76
2024/01/11 11:32:34;;;;;;;;;;;1.70;91.30;;;;;;5111829;28;19927;-75
2024/01/11 11:35:00;;;;;;;;;;;1.70;91.30;;;;;;5112808;28;19961;-75
2024/01/11 11:37:25;;;;;;;;;;;1.70;91.80;;;;;;5111354;28;19915;-75
2024/01/11 11:39:51;;;;;;;;;;;1.80;91.60;;;;;;5112102;28;19967;-76
2024/01/11 11:42:16;;;;;;;;;;;1.80;91.40;;;;;;5113755;28;19919;-75
2024/01/11 11:44:50;;;;;;;;;;;1.80;91.30;;;;;;5112557;28;19912;-76
2024/01/11 11:47:19;;;;;;;;;;;1.80;91.70;;;;;;5113178;28;20377;-76
2024/01/11 11:49:59;;;;;;;;;;;1.90;91.20;;;;;;5112062;28;19908;-75
2024/01/11 11:52:25;;;;;;;;;;;1.90;90.00;;;;;;5113690;28;20395;-75
2024/01/11 11:54:50;;;;;;;;;;;2.10;89.00;;;;;;5111307;28;19914;-75
2024/01/11 11:57:16;;;;;;;;;;;2.10;87.60;;;;;;5112529;28;19911;-76
2024/01/11 11:59:42;;;;;;;;;;;2.20;87.60;;;;;;5110841;28;19969;-75
2024/01/11 12:02:14;;;;;;;;;;;2.30;84.80;;;;;;5112375;28;19932;-75
2024/01/11 12:04:40;;;;;;;;;;;2.40;83.80;;;;;;5111694;28;19918;-76
2024/01/11 12:07:05;;;;;;;;;;;2.40;83.00;;;;;;5112711;28;19912;-75
2024/01/11 12:09:31;;;;;;;;;;;2.50;82.70;;;;;;5115756;28;19940;-76
2024/01/11 12:11:56;;;;;;;;;;;2.70;82.90;;;;;;5118192;28;20295;-76
2024/01/11 12:14:22;;;;;;;;;;;2.70;82.50;;;;;;5118326;28;20380;-76
2024/01/11 12:16:55;;;;;;;;;;;2.70;82.70;;;;;;5119044;28;19953;-76
2024/01/11 12:19:22;;;;;;;;;;;2.90;81.40;;;;;;5118327;28;19915;-76
2024/01/11 12:21:49;;;;;;;;;;;3.00;80.00;;;;;;5119513;28;19920;-75
2024/01/11 12:24:15;;;;;;;;;;;3.10;78.60;;;;;;5120520;28;19967;-77
2024/01/11 12:26:40;;;;;;;;;;;3.20;77.60;;;;;;5119991;28;19943;-76
2024/01/11 12:29:06;;;;;;;;;;;3.30;76.80;;;;;;5115777;28;20270;-76
2024/01/11 12:31:32;;;;;;;;;;;3.30;75.90;;;;;;5116473;28;19943;-75
2024/01/11 12:33:57;;;;;;;;;;;3.30;75.10;;;;;;5118510;28;19919;-76
2024/01/11 12:36:23;;;;;;;;;;;3.30;74.60;;;;;;5119444;28;19947;-76
2024/01/11 12:38:49;;;;;;;;;;;3.30;75.50;;;;;;5117026;28;20015;-76
2024/01/11 12:41:14;;;;;;;;;;;3.10;75.40;;;;;;5114499;28;19916;-75
2024/01/11 12:43:40;;;;;;;;;;;3.00;76.20;;;;;;5116239;28;20292;-76
2024/01/11 12:46:05;;;;;;;;;;;3.10;76.10;;;;;;5114743;28;19916;-76
2024/01/11 12:48:31;;;;;;;;;;;3.00;75.10;;;;;;5116492;28;19965;-75
2024/01/11 12:50:56;;;;;;;;;;;3.00;74.80;;;;;;5114813;28;19908;-76
2024/01/11 12:53:24;;;;;;;;;;;3.10;73.50;;;;;;5114363;28;20332;-75
2024/01/11 12:56:02;;;;;;;;;;;3.00;72.40;;;;;;5114623;28;19908;-75
2024/01/11 12:58:28;;;;;;;;;;;3.10;70.40;;;;;;5114728;28;19998;-76
2024/01/11 13:00:54;;;;;;;;;;;3.10;67.90;;;;;;5114931;28;20010;-75
2024/01/11 13:03:20;;;;;;;;;;;3.20;67.70;;;;;;5116386;28;19919;-76
2024/01/11 13:05:46;;;;;;;;;;;3.30;66.60;;;;;;5115081;28;19919;-76
2024/01/11 13:08:11;;;;;;;;;;;3.40;64.80;;;;;;5115223;28;19912;-76
2024/01/11 13:10:37;;;;;;;;;;;3.40;62.40;;;;;;5114727;28;19908;-76
2024/01/11 13:13:03;;;;;;;;;;;3.40;61.40;;;;;;5114556;28;20060;-76
2024/01/11 13:15:29;;;;;;;;;;;3.40;61.90;;;;;;5115866;28;19908;-76
2024/01/11 13:17:55;;;;;;;;;;;3.30;61.50;;;;;;5116075;28;20269;-77
2024/01/11 13:20:21;;;;;;;;;;;3.30;67.30;;;;;;5113335;28;19920;-76
2024/01/11 13:22:47;;;;;;;;;;;3.20;73.30;;;;;;5114434;28;20060;-75
2024/01/11 13:25:12;;;;;;;;;;;3.10;74.30;;;;;;5114369;28;19915;-76
2024/01/11 13:27:38;;;;;;;;;;;3.00;75.60;;;;;;5115693;28;19915;-76
2024/01/11 13:30:04;;;;;;;;;;;3.00;77.00;;;;;;5115547;28;19977;-76
2024/01/11 13:32:29;;;;;;;;;;;2.70;77.40;;;;;;5115688;28;19911;-75
2024/01/11 13:34:55;;;;;;;;;;;2.70;77.70;;;;;;5114223;28;20442;-76
2024/01/11 13:37:20;;;;;;;;;;;2.60;78.70;;;;;;5114048;28;19965;-75
2024/01/11 13:39:46;;;;;;;;;;;2.50;79.90;;;;;;5114732;28;19927;-76
2024/01/11 13:42:12;;;;;;;;;;;2.40;79.80;;;;;;5116607;28;19919;-75
2024/01/11 13:44:38;;;;;;;;;;;2.40;80.80;;;;;;5114695;28;20474;-75
2024/01/11 13:47:04;;;;;;;;;;;2.50;81.70;;;;;;5114810;28;19916;-76
2024/01/11 13:49:29;;;;;;;;;;;2.20;81.60;;;;;;5116602;28;19919;-76
2024/01/11 13:51:55;;;;;;;;;;;2.10;82.60;;;;;;5115285;28;19908;-76
2024/01/11 13:54:22;;;;;;;;;;;2.20;84.00;;;;;;5114881;28;19911;-76
2024/01/11 13:56:47;;;;;;;;;;;2.10;82.70;;;;;;5117263;28;19908;-76
2024/01/11 13:59:13;;;;;;;;;;;2.10;83.20;;;;;;5115891;28;19908;-76
2024/01/11 14:01:38;;;;;;;;;;;2.00;84.30;;;;;;5116874;28;19963;-76
2024/01/11 14:04:04;;;;;;;;;;;1.90;85.00;;;;;;5115889;28;20325;-76
2024/01/11 14:06:30;;;;;;;;;;;1.90;85.30;;;;;;5115739;28;19908;-76
2024/01/11 14:08:55;;;;;;;;;;;1.80;85.70;;;;;;5117086;28;19908;-76
2024/01/11 14:11:21;;;;;;;;;;;1.80;86.20;;;;;;5115588;28;19911;-76
2024/01/11 14:13:46;;;;;;;;;;;1.80;86.60;;;;;;5115472;28;19916;-76
2024/01/11 14:16:13;;;;;;;;;;;1.70;87.00;;;;;;5115519;28;19912;-75